sensor_id;sensor_type;location;lat;lon;timestamp;pressure;altitude;pressure_sealevel;temperature;humidity
24825;BME280;12910;57.690;11.974;2023-02-03T00:00:37;100453.97;;;-0.50;100.00
24825;BME280;12910;57.690;11.974;2023-02-03T00:03:03;100459.13;;;-0.49;100.00
24825;BME280;12910;57.690;11.974;2023-02-03T00:05:29;100457.38;;;-0.50;100.00
24825;BME280;12910;57.690;11.974;2023-02-03T00:07:55;100442.34;;;-0.48;100.00
24825;BME280;12910;57.690;11.974;2023-02-03T00:10:20;100437.25;;;-0.50;100.00
24825;BME280;12910;57.690;11.974;2023-02-03T00:12:48;100424.72;;;-0.48;100.00
24825;BME280;12910;57.690;11.974;2023-02-03T00:15:13;100428.22;;;-0.46;100.00
24825;BME280;12910;57.690;11.974;2023-02-03T00:17:39;100425.78;;;-0.44;100.00
24825;BME280;12910;57.690;11.974;2023-02-03T00:20:04;100419.09;;;-0.44;100.00
24825;BME280;12910;57.690;11.974;2023-02-03T00:22:30;100399.56;;;-0.48;100.00
24825;BME280;12910;57.690;11.974;2023-02-03T00:24:55;100406.41;;;-0.45;100.00
24825;BME280;12910;57.690;11.974;2023-02-03T00:27:21;100409.88;;;-0.43;100.00
24825;BME280;12910;57.690;11.974;2023-02-03T00:29:46;100399.81;;;-0.43;100.00
24825;BME280;12910;57.690;11.974;2023-02-03T00:32:11;100392.53;;;-0.39;100.00
24825;BME280;12910;57.690;11.974;2023-02-03T00:34:37;100389.22;;;-0.38;100.00
24825;BME280;12910;57.690;11.974;2023-02-03T00:37:02;100380.00;;;-0.37;100.00
24825;BME280;12910;57.690;11.974;2023-02-03T00:39:27;100384.19;;;-0.38;100.00
24825;BME280;12910;57.690;11.974;2023-02-03T00:41:53;100374.91;;;-0.39;100.00
24825;BME280;12910;57.690;11.974;2023-02-03T00:44:18;100366.75;;;-0.35;100.00
24825;BME280;12910;57.690;11.974;2023-02-03T00:46:43;100355.97;;;-0.32;100.00
24825;BME280;12910;57.690;11.974;2023-02-03T00:49:09;100351.66;;;-0.35;100.00
24825;BME280;12910;57.690;11.974;2023-02-03T00:51:34;100339.91;;;-0.34;100.00
24825;BME280;12910;57.690;11.974;2023-02-03T00:53:59;100332.09;;;-0.39;100.00
24825;BME280;12910;57.690;11.974;2023-02-03T00:56:25;100327.84;;;-0.40;100.00
24825;BME280;12910;57.690;11.974;2023-02-03T00:58:51;100334.16;;;-0.32;100.00
24825;BME280;12910;57.690;11.974;2023-02-03T01:01:16;100330.09;;;-0.29;100.00
24825;BME280;12910;57.690;11.974;2023-02-03T01:03:42;100324.19;;;-0.30;100.00
24825;BME280;12910;57.690;11.974;2023-02-03T01:06:15;100320.97;;;-0.27;100.00
24825;BME280;12910;57.690;11.974;2023-02-03T01:08:41;100302.22;;;-0.33;100.00
24825;BME280;12910;57.690;11.974;2023-02-03T01:11:08;100299.03;;;-0.30;100.00
24825;BME280;12910;57.690;11.974;2023-02-03T01:13:34;100298.13;;;-0.30;100.00
24825;BME280;12910;57.690;11.974;2023-02-03T01:16:00;100291.53;;;-0.28;100.00
24825;BME280;12910;57.690;11.974;2023-02-03T01:18:25;100275.56;;;-0.29;100.00
24825;BME280;12910;57.690;11.974;2023-02-03T01:20:50;100274.69;;;-0.29;100.00
24825;BME280;12910;57.690;11.974;2023-02-03T01:23:16;100271.38;;;-0.28;100.00
24825;BME280;12910;57.690;11.974;2023-02-03T01:25:41;100263.84;;;-0.28;100.00
24825;BME280;12910;57.690;11.974;2023-02-03T01:28:06;100251.25;;;-0.28;100.00
24825;BME280;12910;57.690;11.974;2023-02-03T01:30:33;100252.72;;;-0.32;100.00
24825;BME280;12910;57.690;11.974;2023-02-03T01:32:58;100247.44;;;-0.37;100.00
24825;BME280;12910;57.690;11.974;2023-02-03T01:35:23;100241.69;;;-0.34;100.00
24825;BME280;12910;57.690;11.974;2023-02-03T01:37:49;100232.34;;;-0.37;100.00
24825;BME280;12910;57.690;11.974;2023-02-03T01:40:14;100242.03;;;-0.28;100.00
24825;BME280;12910;57.690;11.974;2023-02-03T01:42:39;100226.53;;;-0.36;100.00
24825;BME280;12910;57.690;11.974;2023-02-03T01:45:05;100216.44;;;-0.36;100.00
24825;BME280;12910;57.690;11.974;2023-02-03T01:47:32;100219.13;;;-0.33;100.00
24825;BME280;12910;57.690;11.974;2023-02-03T01:52:30;100192.84;;;-0.38;100.00
24825;BME280;12910;57.690;11.974;2023-02-03T01:54:58;100180.06;;;-0.41;100.00
24825;BME280;12910;57.690;11.974;2023-02-03T01:57:30;100182.94;;;-0.35;100.00
24825;BME280;12910;57.690;11.974;2023-02-03T01:59:58;100185.28;;;-0.38;100.00
24825;BME280;12910;57.690;11.974;2023-02-03T02:02:24;100170.09;;;-0.39;100.00
24825;BME280;12910;57.690;11.974;2023-02-03T02:04:59;100167.66;;;-0.38;100.00
24825;BME280;12910;57.690;11.974;2023-02-03T02:07:26;100155.06;;;-0.38;100.00
24825;BME280;12910;57.690;11.974;2023-02-03T02:09:52;100138.22;;;-0.39;100.00
24825;BME280;12910;57.690;11.974;2023-02-03T02:12:18;100131.47;;;-0.40;100.00
24825;BME280;12910;57.690;11.974;2023-02-03T02:14:44;100114.63;;;-0.41;100.00
24825;BME280;12910;57.690;11.974;2023-02-03T02:17:35;100104.88;;;-0.35;100.00
24825;BME280;12910;57.690;11.974;2023-02-03T02:29:34;100096.69;;;-0.30;100.00
24825;BME280;12910;57.690;11.974;2023-02-03T02:34:52;100067.72;;;-0.39;100.00
24825;BME280;12910;57.690;11.974;2023-02-03T02:37:46;100073.06;;;-0.33;100.00
24825;BME280;12910;57.690;11.974;2023-02-03T02:40:25;100061.28;;;-0.34;100.00
24825;BME280;12910;57.690;11.974;2023-02-03T02:43:25;100048.53;;;-0.37;100.00
24825;BME280;12910;57.690;11.974;2023-02-03T02:46:00;100043.03;;;-0.29;100.00
24825;BME280;12910;57.690;11.974;2023-02-03T02:48:39;100037.28;;;-0.27;100.00
24825;BME280;12910;57.690;11.974;2023-02-03T02:51:10;100035.25;;;-0.34;100.00
24825;BME280;12910;57.690;11.974;2023-02-03T02:53:40;100017.69;;;-0.33;100.00
24825;BME280;12910;57.690;11.974;2023-02-03T02:56:09;100006.03;;;-0.30;100.00
24825;BME280;12910;57.690;11.974;2023-02-03T02:58:36;100008.94;;;-0.23;100.00
24825;BME280;12910;57.690;11.974;2023-02-03T03:01:06;99974.31;;;-0.27;100.00
24825;BME280;12910;57.690;11.974;2023-02-03T03:03:32;99973.13;;;-0.17;100.00
24825;BME280;12910;57.690;11.974;2023-02-03T03:06:25;99967.09;;;-0.21;100.00
24825;BME280;12910;57.690;11.974;2023-02-03T03:08:58;99956.13;;;-0.21;100.00
24825;BME280;12910;57.690;11.974;2023-02-03T03:11:29;99948.66;;;-0.20;100.00
24825;BME280;12910;57.690;11.974;2023-02-03T03:13:55;99937.72;;;-0.20;100.00
24825;BME280;12910;57.690;11.974;2023-02-03T03:16:26;99914.09;;;-0.22;100.00
24825;BME280;12910;57.690;11.974;2023-02-03T03:18:59;99911.69;;;-0.21;100.00
24825;BME280;12910;57.690;11.974;2023-02-03T03:21:33;99891.66;;;-0.18;100.00
24825;BME280;12910;57.690;11.974;2023-02-03T03:24:04;99885.78;;;-0.18;100.00
24825;BME280;12910;57.690;11.974;2023-02-03T03:26:33;99867.19;;;-0.20;100.00
24825;BME280;12910;57.690;11.974;2023-02-03T03:29:09;99861.22;;;-0.22;100.00
24825;BME280;12910;57.690;11.974;2023-02-03T03:31:37;99846.00;;;-0.25;100.00
24825;BME280;12910;57.690;11.974;2023-02-03T03:34:03;99848.34;;;-0.28;100.00
24825;BME280;12910;57.690;11.974;2023-02-03T03:36:45;99841.06;;;-0.22;100.00
24825;BME280;12910;57.690;11.974;2023-02-03T03:39:42;99825.19;;;-0.21;100.00
24825;BME280;12910;57.690;11.974;2023-02-03T03:42:17;99807.28;;;-0.27;100.00
24825;BME280;12910;57.690;11.974;2023-02-03T03:45:26;99796.53;;;-0.23;100.00
24825;BME280;12910;57.690;11.974;2023-02-03T03:47:57;99779.53;;;-0.29;100.00
24825;BME280;12910;57.690;11.974;2023-02-03T03:50:30;99774.56;;;-0.27;100.00
24825;BME280;12910;57.690;11.974;2023-02-03T03:53:00;99768.72;;;-0.26;100.00
24825;BME280;12910;57.690;11.974;2023-02-03T03:55:28;99767.22;;;-0.23;100.00
24825;BME280;12910;57.690;11.974;2023-02-03T03:58:15;99758.13;;;-0.19;100.00
24825;BME280;12910;57.690;11.974;2023-02-03T04:00:44;99749.78;;;-0.18;100.00
24825;BME280;12910;57.690;11.974;2023-02-03T04:03:14;99736.09;;;-0.23;100.00
24825;BME280;12910;57.690;11.974;2023-02-03T04:05:41;99729.38;;;-0.24;100.00
24825;BME280;12910;57.690;11.974;2023-02-03T04:08:07;99725.25;;;-0.22;100.00
24825;BME280;12910;57.690;11.974;2023-02-03T04:10:38;99704.41;;;-0.20;100.00
24825;BME280;12910;57.690;11.974;2023-02-03T04:13:04;99695.22;;;-0.18;100.00
24825;BME280;12910;57.690;11.974;2023-02-03T04:15:31;99681.66;;;-0.21;100.00
24825;BME280;12910;57.690;11.974;2023-02-03T04:17:57;99675.81;;;-0.20;100.00
24825;BME280;12910;57.690;11.974;2023-02-03T04:20:23;99656.56;;;-0.20;100.00
24825;BME280;12910;57.690;11.974;2023-02-03T04:22:49;99657.25;;;-0.22;100.00
24825;BME280;12910;57.690;11.974;2023-02-03T04:25:15;99642.16;;;-0.22;100.00
24825;BME280;12910;57.690;11.974;2023-02-03T04:27:40;99636.06;;;-0.27;100.00
24825;BME280;12910;57.690;11.974;2023-02-03T04:30:06;99616.72;;;-0.28;100.00
24825;BME280;12910;57.690;11.974;2023-02-03T04:32:31;99599.88;;;-0.29;100.00
24825;BME280;12910;57.690;11.974;2023-02-03T04:34:59;99606.78;;;-0.25;100.00
24825;BME280;12910;57.690;11.974;2023-02-03T04:37:24;99592.38;;;-0.28;100.00
24825;BME280;12910;57.690;11.974;2023-02-03T04:39:53;99585.75;;;-0.26;100.00
24825;BME280;12910;57.690;11.974;2023-02-03T04:42:19;99579.88;;;-0.26;100.00
24825;BME280;12910;57.690;11.974;2023-02-03T04:44:45;99566.22;;;-0.32;100.00
24825;BME280;12910;57.690;11.974;2023-02-03T04:47:10;99567.16;;;-0.29;100.00
24825;BME280;12910;57.690;11.974;2023-02-03T04:49:36;99556.47;;;-0.24;100.00
24825;BME280;12910;57.690;11.974;2023-02-03T04:52:01;99538.53;;;-0.32;100.00
24825;BME280;12910;57.690;11.974;2023-02-03T04:54:26;99536.75;;;-0.34;100.00
24825;BME280;12910;57.690;11.974;2023-02-03T04:56:52;99514.88;;;-0.35;100.00
24825;BME280;12910;57.690;11.974;2023-02-03T04:59:17;99529.25;;;-0.33;100.00
24825;BME280;12910;57.690;11.974;2023-02-03T05:01:42;99518.19;;;-0.36;100.00
24825;BME280;12910;57.690;11.974;2023-02-03T05:04:08;99521.03;;;-0.28;100.00
24825;BME280;12910;57.690;11.974;2023-02-03T05:06:33;99492.81;;;-0.41;100.00
24825;BME280;12910;57.690;11.974;2023-02-03T05:08:58;99503.19;;;-0.35;100.00
24825;BME280;12910;57.690;11.974;2023-02-03T05:11:24;99487.13;;;-0.37;100.00
24825;BME280;12910;57.690;11.974;2023-02-03T05:13:49;99490.59;;;-0.35;100.00
24825;BME280;12910;57.690;11.974;2023-02-03T05:16:15;99481.38;;;-0.34;100.00
24825;BME280;12910;57.690;11.974;2023-02-03T05:18:40;99475.59;;;-0.32;100.00
24825;BME280;12910;57.690;11.974;2023-02-03T05:21:06;99464.72;;;-0.30;100.00
24825;BME280;12910;57.690;11.974;2023-02-03T05:23:32;99462.28;;;-0.29;100.00
24825;BME280;12910;57.690;11.974;2023-02-03T05:25:57;99435.25;;;-0.33;100.00
24825;BME280;12910;57.690;11.974;2023-02-03T05:28:23;99437.03;;;-0.30;100.00
24825;BME280;12910;57.690;11.974;2023-02-03T05:30:48;99422.66;;;-0.33;100.00
24825;BME280;12910;57.690;11.974;2023-02-03T05:33:13;99412.56;;;-0.35;100.00
24825;BME280;12910;57.690;11.974;2023-02-03T05:35:39;99402.41;;;-0.36;100.00
24825;BME280;12910;57.690;11.974;2023-02-03T05:38:04;99400.75;;;-0.36;100.00
24825;BME280;12910;57.690;11.974;2023-02-03T05:40:30;99392.34;;;-0.36;100.00
24825;BME280;12910;57.690;11.974;2023-02-03T05:43:14;99381.28;;;-0.40;100.00
24825;BME280;12910;57.690;11.974;2023-02-03T05:45:39;99378.03;;;-0.37;100.00
24825;BME280;12910;57.690;11.974;2023-02-03T05:48:05;99357.22;;;-0.33;100.00
24825;BME280;12910;57.690;11.974;2023-02-03T05:50:31;99352.06;;;-0.36;100.00
24825;BME280;12910;57.690;11.974;2023-02-03T05:52:59;99327.75;;;-0.36;100.00
24825;BME280;12910;57.690;11.974;2023-02-03T05:55:26;99319.31;;;-0.36;100.00
24825;BME280;12910;57.690;11.974;2023-02-03T05:57:52;99324.66;;;-0.28;100.00
24825;BME280;12910;57.690;11.974;2023-02-03T06:00:18;99306.88;;;-0.33;100.00
24825;BME280;12910;57.690;11.974;2023-02-03T06:02:50;99308.63;;;-0.30;100.00
24825;BME280;12910;57.690;11.974;2023-02-03T06:05:15;99297.78;;;-0.29;100.00
24825;BME280;12910;57.690;11.974;2023-02-03T06:07:41;99285.97;;;-0.30;100.00
24825;BME280;12910;57.690;11.974;2023-02-03T06:10:06;99287.66;;;-0.31;100.00
24825;BME280;12910;57.690;11.974;2023-02-03T06:12:32;99276.66;;;-0.33;100.00
24825;BME280;12910;57.690;11.974;2023-02-03T06:14:57;99282.00;;;-0.25;100.00
24825;BME280;12910;57.690;11.974;2023-02-03T06:17:23;99279.47;;;-0.25;100.00
24825;BME280;12910;57.690;11.974;2023-02-03T06:19:48;99260.75;;;-0.32;100.00
24825;BME280;12910;57.690;11.974;2023-02-03T06:22:13;99259.97;;;-0.31;100.00
24825;BME280;12910;57.690;11.974;2023-02-03T06:24:38;99257.53;;;-0.28;100.00
24825;BME280;12910;57.690;11.974;2023-02-03T06:27:04;99265.09;;;-0.28;100.00
24825;BME280;12910;57.690;11.974;2023-02-03T06:29:29;99253.50;;;-0.24;100.00
24825;BME280;12910;57.690;11.974;2023-02-03T06:31:55;99231.56;;;-0.27;100.00
24825;BME280;12910;57.690;11.974;2023-02-03T06:34:20;99244.50;;;-0.18;100.00
24825;BME280;12910;57.690;11.974;2023-02-03T06:36:45;99225.97;;;-0.20;100.00
24825;BME280;12910;57.690;11.974;2023-02-03T06:39:12;99224.31;;;-0.19;100.00
24825;BME280;12910;57.690;11.974;2023-02-03T06:41:38;99221.00;;;-0.18;100.00
24825;BME280;12910;57.690;11.974;2023-02-03T06:44:03;99216.81;;;-0.18;100.00
24825;BME280;12910;57.690;11.974;2023-02-03T06:46:28;99209.16;;;-0.21;100.00
24825;BME280;12910;57.690;11.974;2023-02-03T06:48:54;99200.84;;;-0.18;100.00
24825;BME280;12910;57.690;11.974;2023-02-03T06:51:20;99200.13;;;-0.14;100.00
24825;BME280;12910;57.690;11.974;2023-02-03T06:53:45;99170.44;;;-0.24;100.00
24825;BME280;12910;57.690;11.974;2023-02-03T06:56:11;99176.44;;;-0.21;100.00
24825;BME280;12910;57.690;11.974;2023-02-03T06:58:36;99179.00;;;-0.19;100.00
24825;BME280;12910;57.690;11.974;2023-02-03T07:01:01;99158.00;;;-0.20;100.00
24825;BME280;12910;57.690;11.974;2023-02-03T07:03:27;99168.00;;;-0.21;100.00
24825;BME280;12910;57.690;11.974;2023-02-03T07:05:52;99189.19;;;-0.16;100.00
24825;BME280;12910;57.690;11.974;2023-02-03T07:08:17;99190.91;;;-0.15;100.00
24825;BME280;12910;57.690;11.974;2023-02-03T07:10:43;99187.63;;;-0.12;100.00
24825;BME280;12910;57.690;11.974;2023-02-03T07:13:08;99203.00;;;-0.05;100.00
24825;BME280;12910;57.690;11.974;2023-02-03T07:15:34;99190.16;;;-0.12;100.00
24825;BME280;12910;57.690;11.974;2023-02-03T07:17:59;99193.63;;;-0.09;100.00
24825;BME280;12910;57.690;11.974;2023-02-03T07:20:25;99204.63;;;-0.07;100.00
24825;BME280;12910;57.690;11.974;2023-02-03T07:22:54;99191.78;;;-0.13;100.00
24825;BME280;12910;57.690;11.974;2023-02-03T07:25:20;99207.19;;;-0.05;100.00
24825;BME280;12910;57.690;11.974;2023-02-03T07:27:45;99209.88;;;-0.01;100.00
24825;BME280;12910;57.690;11.974;2023-02-03T07:30:11;99201.50;;;0.01;100.00
24825;BME280;12910;57.690;11.974;2023-02-03T07:32:37;99190.47;;;-0.03;100.00
24825;BME280;12910;57.690;11.974;2023-02-03T07:35:02;99197.44;;;0.04;100.00
24825;BME280;12910;57.690;11.974;2023-02-03T07:37:27;99198.31;;;0.05;100.00
24825;BME280;12910;57.690;11.974;2023-02-03T07:39:53;99210.06;;;0.06;100.00
24825;BME280;12910;57.690;11.974;2023-02-03T07:42:18;99202.50;;;0.06;100.00
24825;BME280;12910;57.690;11.974;2023-02-03T07:44:43;99199.91;;;0.03;100.00
24825;BME280;12910;57.690;11.974;2023-02-03T07:47:09;99211.00;;;0.08;100.00
24825;BME280;12910;57.690;11.974;2023-02-03T07:49:34;99209.28;;;0.07;100.00
24825;BME280;12910;57.690;11.974;2023-02-03T07:51:59;99213.31;;;0.02;100.00
24825;BME280;12910;57.690;11.974;2023-02-03T07:54:25;99197.88;;;-0.08;100.00
24825;BME280;12910;57.690;11.974;2023-02-03T07:56:51;99208.91;;;-0.04;100.00
24825;BME280;12910;57.690;11.974;2023-02-03T07:59:16;99219.03;;;-0.03;100.00
24825;BME280;12910;57.690;11.974;2023-02-03T08:01:42;99220.81;;;0.00;100.00
24825;BME280;12910;57.690;11.974;2023-02-03T08:04:07;99220.75;;;-0.02;100.00
24825;BME280;12910;57.690;11.974;2023-02-03T08:06:33;99217.31;;;-0.04;100.00
24825;BME280;12910;57.690;11.974;2023-02-03T08:08:58;99224.97;;;-0.01;100.00
24825;BME280;12910;57.690;11.974;2023-02-03T08:11:24;99228.88;;;-0.09;100.00
24825;BME280;12910;57.690;11.974;2023-02-03T08:13:49;99221.28;;;-0.10;100.00
24825;BME280;12910;57.690;11.974;2023-02-03T08:16:15;99240.22;;;0.03;100.00
24825;BME280;12910;57.690;11.974;2023-02-03T08:18:40;99230.88;;;0.00;100.00
24825;BME280;12910;57.690;11.974;2023-02-03T08:21:06;99240.28;;;0.06;100.00
24825;BME280;12910;57.690;11.974;2023-02-03T08:23:31;99242.00;;;0.07;100.00
24825;BME280;12910;57.690;11.974;2023-02-03T08:25:57;99248.78;;;0.08;100.00
24825;BME280;12910;57.690;11.974;2023-02-03T08:28:22;99258.84;;;0.08;100.00
24825;BME280;12910;57.690;11.974;2023-02-03T08:30:47;99267.44;;;0.13;100.00
24825;BME280;12910;57.690;11.974;2023-02-03T08:33:13;99268.09;;;0.07;100.00
24825;BME280;12910;57.690;11.974;2023-02-03T08:35:39;99285.88;;;0.12;100.00
24825;BME280;12910;57.690;11.974;2023-02-03T08:38:05;99286.63;;;0.09;100.00
24825;BME280;12910;57.690;11.974;2023-02-03T08:40:30;99279.81;;;0.07;100.00
24825;BME280;12910;57.690;11.974;2023-02-03T08:42:55;99300.91;;;0.10;100.00
24825;BME280;12910;57.690;11.974;2023-02-03T08:45:21;99304.34;;;0.12;100.00
24825;BME280;12910;57.690;11.974;2023-02-03T08:47:46;99314.44;;;0.12;100.00
24825;BME280;12910;57.690;11.974;2023-02-03T08:50:12;99329.09;;;0.23;100.00
24825;BME280;12910;57.690;11.974;2023-02-03T08:52:38;99329.84;;;0.20;100.00
24825;BME280;12910;57.690;11.974;2023-02-03T08:55:03;99332.38;;;0.20;100.00
24825;BME280;12910;57.690;11.974;2023-02-03T08:57:33;99351.94;;;0.27;100.00
24825;BME280;12910;57.690;11.974;2023-02-03T08:59:59;99360.53;;;0.33;100.00
24825;BME280;12910;57.690;11.974;2023-02-03T09:02:24;99363.78;;;0.30;100.00
24825;BME280;12910;57.690;11.974;2023-02-03T09:04:50;99372.22;;;0.30;100.00
24825;BME280;12910;57.690;11.974;2023-02-03T09:07:16;99368.66;;;0.25;100.00
24825;BME280;12910;57.690;11.974;2023-02-03T09:09:42;99387.38;;;0.32;100.00
24825;BME280;12910;57.690;11.974;2023-02-03T09:12:07;99405.09;;;0.34;100.00
24825;BME280;12910;57.690;11.974;2023-02-03T09:14:33;99402.59;;;0.34;100.00
24825;BME280;12910;57.690;11.974;2023-02-03T09:17:00;99407.72;;;0.37;100.00
24825;BME280;12910;57.690;11.974;2023-02-03T09:19:25;99409.44;;;0.38;100.00
24825;BME280;12910;57.690;11.974;2023-02-03T09:21:50;99426.81;;;0.53;100.00
24825;BME280;12910;57.690;11.974;2023-02-03T09:24:16;99441.06;;;0.52;100.00
24825;BME280;12910;57.690;11.974;2023-02-03T09:26:42;99446.22;;;0.55;100.00
24825;BME280;12910;57.690;11.974;2023-02-03T09:29:07;99446.13;;;0.52;100.00
24825;BME280;12910;57.690;11.974;2023-02-03T09:31:33;99460.41;;;0.53;100.00
24825;BME280;12910;57.690;11.974;2023-02-03T09:33:59;99470.44;;;0.52;100.00
24825;BME280;12910;57.690;11.974;2023-02-03T09:36:25;99479.88;;;0.56;100.00
24825;BME280;12910;57.690;11.974;2023-02-03T09:38:50;99478.94;;;0.54;100.00
24825;BME280;12910;57.690;11.974;2023-02-03T09:46:37;99495.44;;;0.68;100.00
24825;BME280;12910;57.690;11.974;2023-02-03T09:52:02;99530.28;;;0.78;100.00
24825;BME280;12910;57.690;11.974;2023-02-03T09:54:35;99544.44;;;0.75;100.00
24825;BME280;12910;57.690;11.974;2023-02-03T09:57:05;99562.00;;;0.72;100.00
24825;BME280;12910;57.690;11.974;2023-02-03T09:59:37;99559.78;;;0.58;100.00
24825;BME280;12910;57.690;11.974;2023-02-03T10:08:15;99613.28;;;0.72;100.00
24825;BME280;12910;57.690;11.974;2023-02-03T10:10:53;99615.44;;;0.63;100.00
24825;BME280;12910;57.690;11.974;2023-02-03T10:14:04;99632.72;;;0.75;100.00
24825;BME280;12910;57.690;11.974;2023-02-03T10:16:43;99634.94;;;0.67;100.00
24825;BME280;12910;57.690;11.974;2023-02-03T10:19:15;99645.88;;;0.68;100.00
24825;BME280;12910;57.690;11.974;2023-02-03T10:21:48;99646.03;;;0.71;100.00
24825;BME280;12910;57.690;11.974;2023-02-03T10:24:25;99656.09;;;0.71;100.00
24825;BME280;12910;57.690;11.974;2023-02-03T10:26:51;99662.19;;;0.76;100.00
24825;BME280;12910;57.690;11.974;2023-02-03T10:29:37;99672.13;;;0.73;100.00
24825;BME280;12910;57.690;11.974;2023-02-03T10:32:10;99667.34;;;0.79;100.00
24825;BME280;12910;57.690;11.974;2023-02-03T10:34:37;99675.53;;;0.73;100.00
24825;BME280;12910;57.690;11.974;2023-02-03T10:39:46;99674.13;;;0.80;100.00
24825;BME280;12910;57.690;11.974;2023-02-03T10:42:13;99673.34;;;0.81;100.00
24825;BME280;12910;57.690;11.974;2023-02-03T10:44:42;99657.38;;;0.82;100.00
24825;BME280;12910;57.690;11.974;2023-02-03T10:47:38;99693.78;;;0.89;100.00
24825;BME280;12910;57.690;11.974;2023-02-03T10:50:22;99694.59;;;0.88;100.00
24825;BME280;12910;57.690;11.974;2023-02-03T10:52:47;99717.25;;;0.86;100.00
24825;BME280;12910;57.690;11.974;2023-02-03T10:57:52;99750.97;;;0.88;100.00
24825;BME280;12910;57.690;11.974;2023-02-03T11:00:22;99761.16;;;0.91;100.00
24825;BME280;12910;57.690;11.974;2023-02-03T11:03:04;99766.34;;;0.95;100.00
24825;BME280;12910;57.690;11.974;2023-02-03T11:05:30;99763.81;;;0.95;100.00
24825;BME280;12910;57.690;11.974;2023-02-03T11:07:55;99761.56;;;1.01;100.00
24825;BME280;12910;57.690;11.974;2023-02-03T11:10:37;99766.81;;;1.05;100.00
24825;BME280;12910;57.690;11.974;2023-02-03T11:13:24;99777.69;;;1.04;100.00
24825;BME280;12910;57.690;11.974;2023-02-03T11:16:01;99773.34;;;1.02;100.00
24825;BME280;12910;57.690;11.974;2023-02-03T11:21:20;99769.66;;;0.93;100.00
24825;BME280;12910;57.690;11.974;2023-02-03T11:24:07;99779.09;;;0.98;100.00
24825;BME280;12910;57.690;11.974;2023-02-03T11:26:39;99791.75;;;0.99;100.00
24825;BME280;12910;57.690;11.974;2023-02-03T11:29:21;99817.78;;;0.98;100.00
24825;BME280;12910;57.690;11.974;2023-02-03T11:31:50;99809.03;;;0.90;100.00
24825;BME280;12910;57.690;11.974;2023-02-03T11:34:20;99834.59;;;0.98;100.00
24825;BME280;12910;57.690;11.974;2023-02-03T11:36:48;99835.25;;;0.93;100.00
24825;BME280;12910;57.690;11.974;2023-02-03T11:39:24;99867.66;;;1.04;100.00
24825;BME280;12910;57.690;11.974;2023-02-03T11:41:51;99869.38;;;1.05;100.00
24825;BME280;12910;57.690;11.974;2023-02-03T11:44:27;99870.06;;;1.01;100.00
24825;BME280;12910;57.690;11.974;2023-02-03T11:47:03;99879.84;;;1.14;100.00
24825;BME280;12910;57.690;11.974;2023-02-03T11:54:52;99890.94;;;1.18;100.00
24825;BME280;12910;57.690;11.974;2023-02-03T12:00:36;99894.59;;;1.24;100.00
24825;BME280;12910;57.690;11.974;2023-02-03T12:03:17;99896.97;;;1.21;100.00
24825;BME280;12910;57.690;11.974;2023-02-03T12:05:57;99900.38;;;1.22;100.00
24825;BME280;12910;57.690;11.974;2023-02-03T12:11:35;99909.19;;;1.32;100.00
24825;BME280;12910;57.690;11.974;2023-02-03T12:14:31;99934.53;;;1.33;100.00
24825;BME280;12910;57.690;11.974;2023-02-03T12:17:20;99939.38;;;1.29;100.00
24825;BME280;12910;57.690;11.974;2023-02-03T12:22:48;99968.59;;;1.23;100.00
24825;BME280;12910;57.690;11.974;2023-02-03T12:30:48;99999.16;;;1.30;100.00
24825;BME280;12910;57.690;11.974;2023-02-03T12:33:23;100005.00;;;1.29;100.00
24825;BME280;12910;57.690;11.974;2023-02-03T12:36:17;100001.81;;;1.33;100.00
24825;BME280;12910;57.690;11.974;2023-02-03T12:38:53;100022.16;;;1.36;100.00
24825;BME280;12910;57.690;11.974;2023-02-03T12:41:27;100021.00;;;1.29;100.00
24825;BME280;12910;57.690;11.974;2023-02-03T12:44:02;100026.25;;;1.34;100.00
24825;BME280;12910;57.690;11.974;2023-02-03T12:46:34;100024.41;;;1.30;100.00
24825;BME280;12910;57.690;11.974;2023-02-03T12:49:25;100033.19;;;1.38;100.00
24825;BME280;12910;57.690;11.974;2023-02-03T12:52:09;100038.72;;;1.31;100.00
24825;BME280;12910;57.690;11.974;2023-02-03T12:57:27;100070.84;;;1.33;100.00
24825;BME280;12910;57.690;11.974;2023-02-03T13:02:36;100073.16;;;1.29;100.00
24825;BME280;12910;57.690;11.974;2023-02-03T13:05:36;100093.69;;;1.36;100.00
24825;BME280;12910;57.690;11.974;2023-02-03T13:08:12;100098.81;;;1.38;100.00
24825;BME280;12910;57.690;11.974;2023-02-03T13:10:49;100102.94;;;1.36;100.00
24825;BME280;12910;57.690;11.974;2023-02-03T13:13:22;100082.28;;;1.25;100.00
24825;BME280;12910;57.690;11.974;2023-02-03T13:15:51;100112.88;;;1.33;100.00
24825;BME280;12910;57.690;11.974;2023-02-03T13:18:30;100119.66;;;1.34;100.00
24825;BME280;12910;57.690;11.974;2023-02-03T13:20:57;100127.41;;;1.37;100.00
24825;BME280;12910;57.690;11.974;2023-02-03T13:23:23;100124.06;;;1.38;100.00
24825;BME280;12910;57.690;11.974;2023-02-03T13:31:58;100142.03;;;1.44;100.00
24825;BME280;12910;57.690;11.974;2023-02-03T13:42:25;100201.78;;;1.44;100.00
24825;BME280;12910;57.690;11.974;2023-02-03T13:47:46;100220.38;;;1.28;100.00
24825;BME280;12910;57.690;11.974;2023-02-03T13:50:21;100238.28;;;1.32;100.00
24825;BME280;12910;57.690;11.974;2023-02-03T13:53:22;100245.75;;;1.31;100.00
24825;BME280;12910;57.690;11.974;2023-02-03T13:55:54;100258.31;;;1.29;100.00
24825;BME280;12910;57.690;11.974;2023-02-03T13:58:26;100261.84;;;1.33;100.00
24825;BME280;12910;57.690;11.974;2023-02-03T14:05:47;100293.66;;;1.29;100.00
24825;BME280;12910;57.690;11.974;2023-02-03T14:16:42;100328.28;;;1.32;100.00
24825;BME280;12910;57.690;11.974;2023-02-03T14:22:15;100354.91;;;1.25;100.00
24825;BME280;12910;57.690;11.974;2023-02-03T14:24:43;100356.25;;;1.18;100.00
24825;BME280;12910;57.690;11.974;2023-02-03T14:27:23;100377.53;;;1.23;100.00